Terminal Aerodrome Forecast
Issued by NWS

Home | Current Version | Previous Version | Text Only | Print | Product List | Glossary On
Versions: 1 2 3 4 5 6 7 8 9 10 11 12 13 14 15 16 17 18 19 20 21
000
FTUS45 KREV 041700
TAFTVL
TAF
KTVL 041727Z 0418/0518 04008KT P6SM FEW100 SCT250
     FM042200 20009KT P6SM SCT080 BKN150
     FM050100 19006KT P6SM FEW080 SCT250
     FM050400 VRB03KT P6SM SKC=

USA.gov is the U.S. government's official web portal to all federal, state and local government web resources and services.